Sheldons Grove, Illinois
Current Conditions -  °F | °C
As of 2:55 PM on Thursday 27 Nov 2014 (Local Time) from KIJX Reporting Station
Scattered Clouds Scattered Clouds  
Wind Chill: 16°   Ceiling: Unl
Heat Index: 26°   Visibility: 10mi
Dew Point: 16°   Wind: 9mph
Humidity: 67%   Direction: 290°WNW
Pressure: 30.46"   Gusts: NA
Location:  40.1574°N, 90.35°W
Report Text: KIJX 272055Z AUTO 29008KT 10SM SCT022 M04/M09 A3046 RMK AO2 T10361090
Loading
Personal Weather Stations






























Interactive Weather Map New forecast layout! Learn more

10-Day Weather Forecast

Advertisements
Track Severe Weather on mobile